sensor_id;sensor_type;location;lat;lon;timestamp;P1;durP1;ratioP1;P2;durP2;ratioP2
7173;SDS011;3628;48.654;8.932;2022-12-10T00:01:15;25.03;;;13.47;;
7173;SDS011;3628;48.654;8.932;2022-12-10T00:03:43;23.37;;;13.73;;
7173;SDS011;3628;48.654;8.932;2022-12-10T00:06:13;24.80;;;14.90;;
7173;SDS011;3628;48.654;8.932;2022-12-10T00:08:40;23.63;;;14.43;;
7173;SDS011;3628;48.654;8.932;2022-12-10T00:11:07;26.67;;;13.77;;
7173;SDS011;3628;48.654;8.932;2022-12-10T00:13:34;20.40;;;13.33;;
7173;SDS011;3628;48.654;8.932;2022-12-10T00:16:01;22.83;;;13.77;;
7173;SDS011;3628;48.654;8.932;2022-12-10T00:18:28;28.27;;;15.63;;
7173;SDS011;3628;48.654;8.932;2022-12-10T00:20:53;22.83;;;14.33;;
7173;SDS011;3628;48.654;8.932;2022-12-10T00:23:19;23.67;;;14.23;;
7173;SDS011;3628;48.654;8.932;2022-12-10T00:25:45;25.67;;;14.07;;
7173;SDS011;3628;48.654;8.932;2022-12-10T00:28:11;24.70;;;13.93;;
7173;SDS011;3628;48.654;8.932;2022-12-10T00:30:37;19.80;;;12.63;;
7173;SDS011;3628;48.654;8.932;2022-12-10T00:33:03;22.57;;;13.80;;
7173;SDS011;3628;48.654;8.932;2022-12-10T00:35:29;19.93;;;13.13;;
7173;SDS011;3628;48.654;8.932;2022-12-10T00:37:54;23.50;;;13.67;;
7173;SDS011;3628;48.654;8.932;2022-12-10T00:40:20;21.23;;;13.20;;
7173;SDS011;3628;48.654;8.932;2022-12-10T00:42:46;20.27;;;13.30;;
7173;SDS011;3628;48.654;8.932;2022-12-10T00:45:12;28.13;;;13.40;;
7173;SDS011;3628;48.654;8.932;2022-12-10T00:47:37;20.20;;;13.30;;
7173;SDS011;3628;48.654;8.932;2022-12-10T00:50:03;21.67;;;14.20;;
7173;SDS011;3628;48.654;8.932;2022-12-10T00:52:29;21.17;;;13.23;;
7173;SDS011;3628;48.654;8.932;2022-12-10T00:54:54;23.43;;;13.50;;
7173;SDS011;3628;48.654;8.932;2022-12-10T00:57:20;22.53;;;13.07;;
7173;SDS011;3628;48.654;8.932;2022-12-10T00:59:45;44.07;;;14.37;;
7173;SDS011;3628;48.654;8.932;2022-12-10T01:02:11;21.33;;;13.50;;
7173;SDS011;3628;48.654;8.932;2022-12-10T01:04:36;19.73;;;13.20;;
7173;SDS011;3628;48.654;8.932;2022-12-10T01:07:02;20.07;;;12.83;;
7173;SDS011;3628;48.654;8.932;2022-12-10T01:09:28;21.60;;;13.43;;
7173;SDS011;3628;48.654;8.932;2022-12-10T01:11:56;21.47;;;13.37;;
7173;SDS011;3628;48.654;8.932;2022-12-10T01:14:27;17.33;;;12.60;;
7173;SDS011;3628;48.654;8.932;2022-12-10T01:16:58;18.43;;;12.70;;
7173;SDS011;3628;48.654;8.932;2022-12-10T01:19:27;21.77;;;13.50;;
7173;SDS011;3628;48.654;8.932;2022-12-10T01:21:54;22.53;;;14.47;;
7173;SDS011;3628;48.654;8.932;2022-12-10T01:24:24;22.97;;;13.53;;
7173;SDS011;3628;48.654;8.932;2022-12-10T01:26:52;21.30;;;13.40;;
7173;SDS011;3628;48.654;8.932;2022-12-10T01:29:18;22.80;;;13.93;;
7173;SDS011;3628;48.654;8.932;2022-12-10T01:31:43;22.93;;;13.80;;
7173;SDS011;3628;48.654;8.932;2022-12-10T01:34:11;25.40;;;13.80;;
7173;SDS011;3628;48.654;8.932;2022-12-10T01:36:39;20.67;;;12.97;;
7173;SDS011;3628;48.654;8.932;2022-12-10T01:39:07;22.40;;;14.37;;
7173;SDS011;3628;48.654;8.932;2022-12-10T01:41:35;21.33;;;13.90;;
7173;SDS011;3628;48.654;8.932;2022-12-10T01:46:35;24.23;;;13.87;;
7173;SDS011;3628;48.654;8.932;2022-12-10T01:49:04;24.27;;;13.30;;
7173;SDS011;3628;48.654;8.932;2022-12-10T01:51:33;27.53;;;12.93;;
7173;SDS011;3628;48.654;8.932;2022-12-10T01:54:01;20.67;;;13.23;;
7173;SDS011;3628;48.654;8.932;2022-12-10T01:56:31;21.03;;;13.10;;
7173;SDS011;3628;48.654;8.932;2022-12-10T01:59:00;20.60;;;12.93;;
7173;SDS011;3628;48.654;8.932;2022-12-10T02:01:36;21.00;;;12.97;;
7173;SDS011;3628;48.654;8.932;2022-12-10T02:04:21;18.73;;;12.23;;
7173;SDS011;3628;48.654;8.932;2022-12-10T02:07:09;23.83;;;13.30;;
7173;SDS011;3628;48.654;8.932;2022-12-10T02:09:41;30.00;;;13.60;;
7173;SDS011;3628;48.654;8.932;2022-12-10T02:14:53;21.07;;;13.77;;
7173;SDS011;3628;48.654;8.932;2022-12-10T02:20:36;21.67;;;13.50;;
7173;SDS011;3628;48.654;8.932;2022-12-10T02:23:25;25.30;;;13.57;;
7173;SDS011;3628;48.654;8.932;2022-12-10T02:26:09;24.07;;;13.80;;
7173;SDS011;3628;48.654;8.932;2022-12-10T02:31:21;23.43;;;14.30;;
7173;SDS011;3628;48.654;8.932;2022-12-10T02:33:52;21.27;;;13.30;;
7173;SDS011;3628;48.654;8.932;2022-12-10T02:36:21;21.23;;;13.53;;
7173;SDS011;3628;48.654;8.932;2022-12-10T02:38:50;20.40;;;12.83;;
7173;SDS011;3628;48.654;8.932;2022-12-10T02:41:22;21.00;;;12.93;;
7173;SDS011;3628;48.654;8.932;2022-12-10T02:43:52;21.20;;;12.87;;
7173;SDS011;3628;48.654;8.932;2022-12-10T02:46:19;96.47;;;17.83;;
7173;SDS011;3628;48.654;8.932;2022-12-10T02:48:47;25.83;;;13.20;;
7173;SDS011;3628;48.654;8.932;2022-12-10T02:51:15;19.30;;;12.43;;
7173;SDS011;3628;48.654;8.932;2022-12-10T02:53:41;21.47;;;13.30;;
7173;SDS011;3628;48.654;8.932;2022-12-10T02:56:15;19.83;;;12.70;;
7173;SDS011;3628;48.654;8.932;2022-12-10T02:59:30;19.33;;;12.97;;
7173;SDS011;3628;48.654;8.932;2022-12-10T03:05:03;22.83;;;12.60;;
7173;SDS011;3628;48.654;8.932;2022-12-10T03:07:54;19.40;;;12.33;;
7173;SDS011;3628;48.654;8.932;2022-12-10T03:10:26;22.93;;;12.57;;
7173;SDS011;3628;48.654;8.932;2022-12-10T03:13:06;21.30;;;12.63;;
7173;SDS011;3628;48.654;8.932;2022-12-10T03:15:35;20.60;;;13.17;;
7173;SDS011;3628;48.654;8.932;2022-12-10T03:18:05;20.17;;;12.90;;
7173;SDS011;3628;48.654;8.932;2022-12-10T03:20:33;20.93;;;13.57;;
7173;SDS011;3628;48.654;8.932;2022-12-10T03:23:02;25.20;;;12.73;;
7173;SDS011;3628;48.654;8.932;2022-12-10T03:25:30;20.93;;;12.20;;
7173;SDS011;3628;48.654;8.932;2022-12-10T03:27:58;19.00;;;11.13;;
7173;SDS011;3628;48.654;8.932;2022-12-10T03:30:25;19.33;;;12.63;;
7173;SDS011;3628;48.654;8.932;2022-12-10T03:32:51;20.13;;;12.53;;
7173;SDS011;3628;48.654;8.932;2022-12-10T03:35:19;23.70;;;13.10;;
7173;SDS011;3628;48.654;8.932;2022-12-10T03:37:47;18.03;;;11.77;;
7173;SDS011;3628;48.654;8.932;2022-12-10T03:40:14;16.47;;;10.93;;
7173;SDS011;3628;48.654;8.932;2022-12-10T03:42:44;18.93;;;12.23;;
7173;SDS011;3628;48.654;8.932;2022-12-10T03:45:09;28.30;;;12.47;;
7173;SDS011;3628;48.654;8.932;2022-12-10T03:47:35;16.63;;;10.90;;
7173;SDS011;3628;48.654;8.932;2022-12-10T03:50:01;20.23;;;12.63;;
7173;SDS011;3628;48.654;8.932;2022-12-10T03:52:26;17.33;;;11.77;;
7173;SDS011;3628;48.654;8.932;2022-12-10T03:54:52;16.87;;;11.33;;
7173;SDS011;3628;48.654;8.932;2022-12-10T03:57:17;19.87;;;11.93;;
7173;SDS011;3628;48.654;8.932;2022-12-10T03:59:43;20.27;;;12.80;;
7173;SDS011;3628;48.654;8.932;2022-12-10T04:02:09;20.03;;;12.50;;
7173;SDS011;3628;48.654;8.932;2022-12-10T04:04:35;20.43;;;12.53;;
7173;SDS011;3628;48.654;8.932;2022-12-10T04:07:01;18.70;;;12.53;;
7173;SDS011;3628;48.654;8.932;2022-12-10T04:09:27;19.87;;;12.00;;
7173;SDS011;3628;48.654;8.932;2022-12-10T04:11:56;20.00;;;12.77;;
7173;SDS011;3628;48.654;8.932;2022-12-10T04:14:23;18.00;;;12.20;;
7173;SDS011;3628;48.654;8.932;2022-12-10T04:17:07;19.93;;;11.73;;
7173;SDS011;3628;48.654;8.932;2022-12-10T04:19:33;21.03;;;12.43;;
7173;SDS011;3628;48.654;8.932;2022-12-10T04:21:59;19.57;;;12.50;;
7173;SDS011;3628;48.654;8.932;2022-12-10T04:24:43;21.10;;;11.97;;
7173;SDS011;3628;48.654;8.932;2022-12-10T04:27:27;18.53;;;12.17;;
7173;SDS011;3628;48.654;8.932;2022-12-10T04:29:56;19.27;;;12.30;;
7173;SDS011;3628;48.654;8.932;2022-12-10T04:32:22;18.73;;;12.20;;
7173;SDS011;3628;48.654;8.932;2022-12-10T04:34:50;17.43;;;11.63;;
7173;SDS011;3628;48.654;8.932;2022-12-10T04:37:16;19.83;;;12.47;;
7173;SDS011;3628;48.654;8.932;2022-12-10T04:39:42;19.27;;;11.97;;
7173;SDS011;3628;48.654;8.932;2022-12-10T04:42:08;18.40;;;11.83;;
7173;SDS011;3628;48.654;8.932;2022-12-10T04:44:34;18.50;;;11.73;;
7173;SDS011;3628;48.654;8.932;2022-12-10T04:47:00;18.53;;;11.97;;
7173;SDS011;3628;48.654;8.932;2022-12-10T04:49:26;18.23;;;12.17;;
7173;SDS011;3628;48.654;8.932;2022-12-10T04:51:52;21.77;;;12.73;;
7173;SDS011;3628;48.654;8.932;2022-12-10T04:54:18;22.60;;;14.47;;
7173;SDS011;3628;48.654;8.932;2022-12-10T04:56:44;23.73;;;14.03;;
7173;SDS011;3628;48.654;8.932;2022-12-10T04:59:10;28.90;;;14.77;;
7173;SDS011;3628;48.654;8.932;2022-12-10T05:01:37;25.03;;;15.70;;
7173;SDS011;3628;48.654;8.932;2022-12-10T05:04:03;24.17;;;14.63;;
7173;SDS011;3628;48.654;8.932;2022-12-10T05:06:31;22.50;;;14.00;;
7173;SDS011;3628;48.654;8.932;2022-12-10T05:08:57;22.47;;;13.97;;
7173;SDS011;3628;48.654;8.932;2022-12-10T05:11:25;20.07;;;13.30;;
7173;SDS011;3628;48.654;8.932;2022-12-10T05:13:53;19.43;;;12.57;;
7173;SDS011;3628;48.654;8.932;2022-12-10T05:16:19;22.93;;;14.07;;
7173;SDS011;3628;48.654;8.932;2022-12-10T05:18:47;24.43;;;15.10;;
7173;SDS011;3628;48.654;8.932;2022-12-10T05:21:14;24.60;;;16.90;;
7173;SDS011;3628;48.654;8.932;2022-12-10T05:23:42;23.87;;;14.60;;
7173;SDS011;3628;48.654;8.932;2022-12-10T05:28:47;21.20;;;12.97;;
7173;SDS011;3628;48.654;8.932;2022-12-10T05:31:15;19.17;;;12.03;;
7173;SDS011;3628;48.654;8.932;2022-12-10T05:33:42;22.50;;;12.47;;
7173;SDS011;3628;48.654;8.932;2022-12-10T05:36:09;18.33;;;11.93;;
7173;SDS011;3628;48.654;8.932;2022-12-10T05:38:36;19.10;;;11.53;;
7173;SDS011;3628;48.654;8.932;2022-12-10T05:41:03;21.13;;;12.00;;
7173;SDS011;3628;48.654;8.932;2022-12-10T05:43:30;18.20;;;12.13;;
7173;SDS011;3628;48.654;8.932;2022-12-10T05:46:02;21.87;;;13.07;;
7173;SDS011;3628;48.654;8.932;2022-12-10T05:48:29;21.50;;;13.47;;
7173;SDS011;3628;48.654;8.932;2022-12-10T05:50:55;18.23;;;11.87;;
7173;SDS011;3628;48.654;8.932;2022-12-10T05:53:21;20.17;;;12.67;;
7173;SDS011;3628;48.654;8.932;2022-12-10T05:55:47;18.97;;;12.60;;
7173;SDS011;3628;48.654;8.932;2022-12-10T05:58:13;18.67;;;11.80;;
7173;SDS011;3628;48.654;8.932;2022-12-10T06:00:39;24.30;;;13.47;;
7173;SDS011;3628;48.654;8.932;2022-12-10T06:03:06;22.50;;;12.70;;
7173;SDS011;3628;48.654;8.932;2022-12-10T06:05:36;23.00;;;13.40;;
7173;SDS011;3628;48.654;8.932;2022-12-10T06:08:05;22.53;;;13.57;;
7173;SDS011;3628;48.654;8.932;2022-12-10T06:10:33;23.17;;;13.30;;
7173;SDS011;3628;48.654;8.932;2022-12-10T06:12:59;19.77;;;13.03;;
7173;SDS011;3628;48.654;8.932;2022-12-10T06:15:24;21.20;;;11.97;;
7173;SDS011;3628;48.654;8.932;2022-12-10T06:17:50;23.33;;;12.43;;
7173;SDS011;3628;48.654;8.932;2022-12-10T06:20:15;20.30;;;13.00;;
7173;SDS011;3628;48.654;8.932;2022-12-10T06:22:41;20.57;;;13.03;;
7173;SDS011;3628;48.654;8.932;2022-12-10T06:25:07;19.80;;;12.53;;
7173;SDS011;3628;48.654;8.932;2022-12-10T06:27:32;21.57;;;13.57;;
7173;SDS011;3628;48.654;8.932;2022-12-10T06:29:58;20.43;;;13.20;;
7173;SDS011;3628;48.654;8.932;2022-12-10T06:32:24;21.60;;;13.87;;
7173;SDS011;3628;48.654;8.932;2022-12-10T06:34:50;21.87;;;13.07;;
7173;SDS011;3628;48.654;8.932;2022-12-10T06:37:15;20.60;;;13.17;;
7173;SDS011;3628;48.654;8.932;2022-12-10T06:39:41;21.40;;;13.40;;
7173;SDS011;3628;48.654;8.932;2022-12-10T06:42:06;21.87;;;13.40;;
7173;SDS011;3628;48.654;8.932;2022-12-10T06:44:33;25.53;;;14.07;;
7173;SDS011;3628;48.654;8.932;2022-12-10T06:46:58;21.97;;;14.70;;
7173;SDS011;3628;48.654;8.932;2022-12-10T06:49:24;21.80;;;13.83;;
7173;SDS011;3628;48.654;8.932;2022-12-10T06:51:49;19.70;;;13.20;;
7173;SDS011;3628;48.654;8.932;2022-12-10T06:54:15;22.07;;;13.63;;
7173;SDS011;3628;48.654;8.932;2022-12-10T06:56:40;21.53;;;13.03;;
7173;SDS011;3628;48.654;8.932;2022-12-10T06:59:06;21.37;;;14.20;;
7173;SDS011;3628;48.654;8.932;2022-12-10T07:01:32;19.57;;;13.53;;
7173;SDS011;3628;48.654;8.932;2022-12-10T07:03:58;21.77;;;14.03;;
7173;SDS011;3628;48.654;8.932;2022-12-10T07:06:24;23.00;;;14.47;;
7173;SDS011;3628;48.654;8.932;2022-12-10T07:08:51;20.57;;;13.43;;
7173;SDS011;3628;48.654;8.932;2022-12-10T07:11:17;22.30;;;14.47;;
7173;SDS011;3628;48.654;8.932;2022-12-10T07:13:44;23.37;;;14.20;;
7173;SDS011;3628;48.654;8.932;2022-12-10T07:16:12;22.97;;;14.57;;
7173;SDS011;3628;48.654;8.932;2022-12-10T07:18:39;20.70;;;13.33;;
7173;SDS011;3628;48.654;8.932;2022-12-10T07:21:16;23.43;;;14.43;;
7173;SDS011;3628;48.654;8.932;2022-12-10T07:23:46;23.63;;;14.37;;
7173;SDS011;3628;48.654;8.932;2022-12-10T07:26:12;26.97;;;14.30;;
7173;SDS011;3628;48.654;8.932;2022-12-10T07:28:38;22.93;;;14.83;;
7173;SDS011;3628;48.654;8.932;2022-12-10T07:31:04;23.60;;;15.00;;
7173;SDS011;3628;48.654;8.932;2022-12-10T07:33:32;22.90;;;14.67;;
7173;SDS011;3628;48.654;8.932;2022-12-10T07:35:58;23.73;;;14.10;;
7173;SDS011;3628;48.654;8.932;2022-12-10T07:38:24;24.43;;;15.23;;
7173;SDS011;3628;48.654;8.932;2022-12-10T07:40:49;20.93;;;13.80;;
7173;SDS011;3628;48.654;8.932;2022-12-10T07:43:16;22.47;;;14.20;;
7173;SDS011;3628;48.654;8.932;2022-12-10T07:45:42;23.23;;;13.97;;
7173;SDS011;3628;48.654;8.932;2022-12-10T07:48:08;21.70;;;14.47;;
7173;SDS011;3628;48.654;8.932;2022-12-10T07:50:33;23.53;;;15.10;;
7173;SDS011;3628;48.654;8.932;2022-12-10T07:52:59;23.60;;;14.57;;
7173;SDS011;3628;48.654;8.932;2022-12-10T07:55:25;21.27;;;13.53;;
7173;SDS011;3628;48.654;8.932;2022-12-10T07:57:50;23.07;;;15.10;;
7173;SDS011;3628;48.654;8.932;2022-12-10T08:00:16;19.40;;;13.17;;
7173;SDS011;3628;48.654;8.932;2022-12-10T08:02:42;19.30;;;12.80;;
7173;SDS011;3628;48.654;8.932;2022-12-10T08:05:07;21.70;;;13.57;;
7173;SDS011;3628;48.654;8.932;2022-12-10T08:07:33;24.70;;;14.23;;
7173;SDS011;3628;48.654;8.932;2022-12-10T08:09:59;23.43;;;13.87;;
7173;SDS011;3628;48.654;8.932;2022-12-10T08:12:24;23.00;;;13.63;;
7173;SDS011;3628;48.654;8.932;2022-12-10T08:14:50;21.20;;;13.50;;
7173;SDS011;3628;48.654;8.932;2022-12-10T08:17:15;20.73;;;12.93;;
7173;SDS011;3628;48.654;8.932;2022-12-10T08:19:41;22.47;;;13.67;;
7173;SDS011;3628;48.654;8.932;2022-12-10T08:22:06;19.87;;;13.37;;
7173;SDS011;3628;48.654;8.932;2022-12-10T08:24:32;22.33;;;13.67;;
7173;SDS011;3628;48.654;8.932;2022-12-10T08:26:58;21.03;;;13.50;;
7173;SDS011;3628;48.654;8.932;2022-12-10T08:29:23;25.20;;;14.30;;
7173;SDS011;3628;48.654;8.932;2022-12-10T08:31:50;103.17;;;20.63;;
7173;SDS011;3628;48.654;8.932;2022-12-10T08:34:16;220.60;;;29.67;;
7173;SDS011;3628;48.654;8.932;2022-12-10T08:36:43;55.70;;;15.43;;
7173;SDS011;3628;48.654;8.932;2022-12-10T08:39:10;50.87;;;15.63;;
7173;SDS011;3628;48.654;8.932;2022-12-10T08:41:40;21.33;;;13.10;;
7173;SDS011;3628;48.654;8.932;2022-12-10T08:44:06;70.93;;;16.67;;
7173;SDS011;3628;48.654;8.932;2022-12-10T08:46:31;22.17;;;14.13;;
7173;SDS011;3628;48.654;8.932;2022-12-10T08:48:57;73.57;;;18.87;;
7173;SDS011;3628;48.654;8.932;2022-12-10T08:51:23;33.80;;;14.93;;
7173;SDS011;3628;48.654;8.932;2022-12-10T08:53:49;63.43;;;15.83;;
7173;SDS011;3628;48.654;8.932;2022-12-10T08:56:14;40.90;;;14.50;;
7173;SDS011;3628;48.654;8.932;2022-12-10T08:58:40;52.63;;;15.10;;
7173;SDS011;3628;48.654;8.932;2022-12-10T09:01:07;164.10;;;27.33;;
7173;SDS011;3628;48.654;8.932;2022-12-10T09:03:34;25.37;;;13.80;;
7173;SDS011;3628;48.654;8.932;2022-12-10T09:06:04;31.90;;;14.50;;
7173;SDS011;3628;48.654;8.932;2022-12-10T09:08:31;33.70;;;14.00;;
7173;SDS011;3628;48.654;8.932;2022-12-10T09:10:58;23.30;;;13.37;;
7173;SDS011;3628;48.654;8.932;2022-12-10T09:13:28;24.40;;;13.90;;
7173;SDS011;3628;48.654;8.932;2022-12-10T09:15:54;20.50;;;13.43;;
7173;SDS011;3628;48.654;8.932;2022-12-10T09:18:19;22.93;;;14.07;;
7173;SDS011;3628;48.654;8.932;2022-12-10T09:20:45;23.47;;;14.17;;
7173;SDS011;3628;48.654;8.932;2022-12-10T09:23:10;20.30;;;13.87;;
7173;SDS011;3628;48.654;8.932;2022-12-10T09:25:36;23.50;;;13.87;;
7173;SDS011;3628;48.654;8.932;2022-12-10T09:28:02;20.23;;;14.13;;
7173;SDS011;3628;48.654;8.932;2022-12-10T09:30:27;24.60;;;13.80;;
7173;SDS011;3628;48.654;8.932;2022-12-10T09:32:53;21.97;;;13.97;;
7173;SDS011;3628;48.654;8.932;2022-12-10T09:35:18;25.40;;;14.33;;
7173;SDS011;3628;48.654;8.932;2022-12-10T09:37:44;18.83;;;13.50;;
7173;SDS011;3628;48.654;8.932;2022-12-10T09:40:14;19.33;;;12.93;;
7173;SDS011;3628;48.654;8.932;2022-12-10T09:42:52;18.93;;;12.80;;
7173;SDS011;3628;48.654;8.932;2022-12-10T09:48:02;19.77;;;12.83;;
7173;SDS011;3628;48.654;8.932;2022-12-10T09:50:53;17.27;;;11.77;;
7173;SDS011;3628;48.654;8.932;2022-12-10T09:53:38;21.23;;;13.33;;
7173;SDS011;3628;48.654;8.932;2022-12-10T09:56:05;19.40;;;13.20;;
7173;SDS011;3628;48.654;8.932;2022-12-10T09:58:41;18.60;;;12.33;;
7173;SDS011;3628;48.654;8.932;2022-12-10T10:01:06;20.87;;;13.57;;
7173;SDS011;3628;48.654;8.932;2022-12-10T10:03:38;18.73;;;12.47;;
7173;SDS011;3628;48.654;8.932;2022-12-10T10:06:06;21.60;;;12.97;;
7173;SDS011;3628;48.654;8.932;2022-12-10T10:08:44;19.70;;;12.60;;
7173;SDS011;3628;48.654;8.932;2022-12-10T10:11:14;19.83;;;12.97;;
7173;SDS011;3628;48.654;8.932;2022-12-10T10:13:55;21.73;;;13.23;;
7173;SDS011;3628;48.654;8.932;2022-12-10T10:16:39;26.57;;;13.83;;
7173;SDS011;3628;48.654;8.932;2022-12-10T10:19:27;21.47;;;13.60;;
7173;SDS011;3628;48.654;8.932;2022-12-10T10:21:55;18.57;;;11.93;;
7173;SDS011;3628;48.654;8.932;2022-12-10T10:24:22;21.37;;;12.83;;
7173;SDS011;3628;48.654;8.932;2022-12-10T10:30:03;24.43;;;12.30;;
7173;SDS011;3628;48.654;8.932;2022-12-10T10:32:44;25.97;;;13.07;;
7173;SDS011;3628;48.654;8.932;2022-12-10T10:35:22;21.47;;;12.60;;
7173;SDS011;3628;48.654;8.932;2022-12-10T10:37:50;22.97;;;12.37;;
7173;SDS011;3628;48.654;8.932;2022-12-10T10:40:22;20.63;;;12.77;;
7173;SDS011;3628;48.654;8.932;2022-12-10T10:42:51;51.77;;;15.97;;
7173;SDS011;3628;48.654;8.932;2022-12-10T10:45:35;25.90;;;14.30;;
7173;SDS011;3628;48.654;8.932;2022-12-10T10:50:38;17.67;;;11.90;;
7173;SDS011;3628;48.654;8.932;2022-12-10T10:53:31;19.63;;;12.10;;
7173;SDS011;3628;48.654;8.932;2022-12-10T10:59:02;18.40;;;11.77;;
7173;SDS011;3628;48.654;8.932;2022-12-10T11:01:49;18.23;;;11.67;;
7173;SDS011;3628;48.654;8.932;2022-12-10T11:04:29;19.73;;;11.80;;
7173;SDS011;3628;48.654;8.932;2022-12-10T11:07:03;18.33;;;12.67;;
7173;SDS011;3628;48.654;8.932;2022-12-10T11:09:31;19.40;;;13.07;;
7173;SDS011;3628;48.654;8.932;2022-12-10T11:12:06;20.17;;;12.97;;
7173;SDS011;3628;48.654;8.932;2022-12-10T11:14:45;15.63;;;11.37;;
7173;SDS011;3628;48.654;8.932;2022-12-10T11:19:43;16.93;;;11.43;;
7173;SDS011;3628;48.654;8.932;2022-12-10T11:22:21;18.77;;;11.63;;
7173;SDS011;3628;48.654;8.932;2022-12-10T11:24:49;18.93;;;11.97;;
7173;SDS011;3628;48.654;8.932;2022-12-10T11:38:03;16.43;;;11.13;;
7173;SDS011;3628;48.654;8.932;2022-12-10T11:49:24;19.10;;;11.00;;
7173;SDS011;3628;48.654;8.932;2022-12-10T11:55:02;17.60;;;11.13;;
7173;SDS011;3628;48.654;8.932;2022-12-10T11:57:45;17.40;;;11.13;;
7173;SDS011;3628;48.654;8.932;2022-12-10T12:00:20;19.07;;;11.47;;
7173;SDS011;3628;48.654;8.932;2022-12-10T12:11:17;16.30;;;10.37;;
7173;SDS011;3628;48.654;8.932;2022-12-10T12:14:14;16.93;;;10.50;;
7173;SDS011;3628;48.654;8.932;2022-12-10T12:16:49;16.97;;;10.27;;
7173;SDS011;3628;48.654;8.932;2022-12-10T12:19:28;13.80;;;9.53;;
7173;SDS011;3628;48.654;8.932;2022-12-10T12:22:00;15.10;;;9.90;;
7173;SDS011;3628;48.654;8.932;2022-12-10T12:24:34;24.23;;;14.67;;
7173;SDS011;3628;48.654;8.932;2022-12-10T12:27:02;15.80;;;11.27;;
7173;SDS011;3628;48.654;8.932;2022-12-10T12:29:57;13.47;;;9.37;;
7173;SDS011;3628;48.654;8.932;2022-12-10T12:35:06;13.90;;;9.60;;
7173;SDS011;3628;48.654;8.932;2022-12-10T12:37:55;12.33;;;9.03;;
7173;SDS011;3628;48.654;8.932;2022-12-10T12:40:34;15.83;;;9.87;;
7173;SDS011;3628;48.654;8.932;2022-12-10T12:43:09;14.07;;;10.07;;
7173;SDS011;3628;48.654;8.932;2022-12-10T12:45:43;15.10;;;10.17;;
7173;SDS011;3628;48.654;8.932;2022-12-10T12:48:19;15.63;;;10.17;;
7173;SDS011;3628;48.654;8.932;2022-12-10T12:53:41;14.83;;;9.30;;
7173;SDS011;3628;48.654;8.932;2022-12-10T13:02:08;13.80;;;8.47;;
7173;SDS011;3628;48.654;8.932;2022-12-10T13:04:53;12.53;;;8.37;;
7173;SDS011;3628;48.654;8.932;2022-12-10T13:23:03;12.87;;;8.93;;
7173;SDS011;3628;48.654;8.932;2022-12-10T13:31:05;12.87;;;8.50;;
7173;SDS011;3628;48.654;8.932;2022-12-10T13:33:45;11.03;;;7.80;;
7173;SDS011;3628;48.654;8.932;2022-12-10T13:36:36;10.77;;;7.60;;
7173;SDS011;3628;48.654;8.932;2022-12-10T13:45:16;13.63;;;8.80;;
7173;SDS011;3628;48.654;8.932;2022-12-10T13:50:19;17.57;;;10.17;;
7173;SDS011;3628;48.654;8.932;2022-12-10T14:04:10;13.47;;;9.47;;
7173;SDS011;3628;48.654;8.932;2022-12-10T14:06:42;17.10;;;10.07;;
7173;SDS011;3628;48.654;8.932;2022-12-10T14:09:21;11.77;;;8.17;;
7173;SDS011;3628;48.654;8.932;2022-12-10T14:11:57;14.43;;;9.07;;
7173;SDS011;3628;48.654;8.932;2022-12-10T14:14:38;14.03;;;8.93;;
7173;SDS011;3628;48.654;8.932;2022-12-10T14:17:06;14.43;;;8.73;;
7173;SDS011;3628;48.654;8.932;2022-12-10T14:19:46;13.33;;;8.47;;
7173;SDS011;3628;48.654;8.932;2022-12-10T14:22:37;15.07;;;9.13;;
7173;SDS011;3628;48.654;8.932;2022-12-10T14:25:03;12.37;;;8.10;;
7173;SDS011;3628;48.654;8.932;2022-12-10T14:27:32;11.57;;;7.67;;
7173;SDS011;3628;48.654;8.932;2022-12-10T14:30:14;11.27;;;7.90;;
7173;SDS011;3628;48.654;8.932;2022-12-10T14:32:43;12.30;;;8.03;;
7173;SDS011;3628;48.654;8.932;2022-12-10T14:35:14;12.53;;;7.90;;
7173;SDS011;3628;48.654;8.932;2022-12-10T14:37:50;14.90;;;9.17;;
7173;SDS011;3628;48.654;8.932;2022-12-10T14:40:21;12.13;;;9.00;;
7173;SDS011;3628;48.654;8.932;2022-12-10T14:42:49;13.57;;;8.13;;
7173;SDS011;3628;48.654;8.932;2022-12-10T14:45:17;12.67;;;8.77;;
7173;SDS011;3628;48.654;8.932;2022-12-10T14:47:44;13.37;;;8.23;;
7173;SDS011;3628;48.654;8.932;2022-12-10T14:50:13;12.70;;;8.63;;
7173;SDS011;3628;48.654;8.932;2022-12-10T14:52:49;14.07;;;8.80;;
7173;SDS011;3628;48.654;8.932;2022-12-10T14:55:18;13.93;;;8.93;;
7173;SDS011;3628;48.654;8.932;2022-12-10T14:57:48;12.37;;;8.67;;
7173;SDS011;3628;48.654;8.932;2022-12-10T15:00:20;11.63;;;8.03;;
7173;SDS011;3628;48.654;8.932;2022-12-10T15:02:48;11.83;;;8.27;;
7173;SDS011;3628;48.654;8.932;2022-12-10T15:05:16;11.47;;;7.63;;
7173;SDS011;3628;48.654;8.932;2022-12-10T15:10:26;11.97;;;8.03;;
7173;SDS011;3628;48.654;8.932;2022-12-10T15:12:55;13.20;;;8.30;;
7173;SDS011;3628;48.654;8.932;2022-12-10T15:15:26;13.73;;;8.73;;
7173;SDS011;3628;48.654;8.932;2022-12-10T15:17:58;12.47;;;8.70;;
7173;SDS011;3628;48.654;8.932;2022-12-10T15:20:37;13.33;;;8.33;;
7173;SDS011;3628;48.654;8.932;2022-12-10T15:25:57;13.93;;;9.07;;
7173;SDS011;3628;48.654;8.932;2022-12-10T15:28:32;13.60;;;8.90;;
7173;SDS011;3628;48.654;8.932;2022-12-10T15:33:52;14.50;;;9.17;;
7173;SDS011;3628;48.654;8.932;2022-12-10T15:36:40;15.80;;;10.10;;
7173;SDS011;3628;48.654;8.932;2022-12-10T15:41:57;12.23;;;9.23;;
7173;SDS011;3628;48.654;8.932;2022-12-10T15:47:05;13.33;;;9.23;;
7173;SDS011;3628;48.654;8.932;2022-12-10T15:49:44;13.97;;;9.37;;
7173;SDS011;3628;48.654;8.932;2022-12-10T15:52:11;15.63;;;9.40;;
7173;SDS011;3628;48.654;8.932;2022-12-10T15:54:38;12.93;;;8.73;;
7173;SDS011;3628;48.654;8.932;2022-12-10T15:59:48;14.83;;;9.47;;
7173;SDS011;3628;48.654;8.932;2022-12-10T16:02:35;12.57;;;8.10;;
7173;SDS011;3628;48.654;8.932;2022-12-10T16:05:23;13.40;;;9.20;;
7173;SDS011;3628;48.654;8.932;2022-12-10T16:08:01;16.93;;;10.20;;
7173;SDS011;3628;48.654;8.932;2022-12-10T16:10:46;12.77;;;8.47;;
7173;SDS011;3628;48.654;8.932;2022-12-10T16:13:19;14.30;;;9.53;;
7173;SDS011;3628;48.654;8.932;2022-12-10T16:16:07;13.77;;;9.30;;
7173;SDS011;3628;48.654;8.932;2022-12-10T16:18:34;14.27;;;9.70;;
7173;SDS011;3628;48.654;8.932;2022-12-10T16:21:01;11.43;;;8.37;;
7173;SDS011;3628;48.654;8.932;2022-12-10T16:23:28;13.13;;;9.17;;
7173;SDS011;3628;48.654;8.932;2022-12-10T16:25:54;11.27;;;8.17;;
7173;SDS011;3628;48.654;8.932;2022-12-10T16:28:20;12.83;;;8.90;;
7173;SDS011;3628;48.654;8.932;2022-12-10T16:30:51;12.40;;;8.50;;
7173;SDS011;3628;48.654;8.932;2022-12-10T16:33:21;12.43;;;8.43;;
7173;SDS011;3628;48.654;8.932;2022-12-10T16:35:49;12.60;;;8.53;;
7173;SDS011;3628;48.654;8.932;2022-12-10T16:38:16;12.50;;;8.80;;
7173;SDS011;3628;48.654;8.932;2022-12-10T16:40:43;11.17;;;7.63;;
7173;SDS011;3628;48.654;8.932;2022-12-10T16:43:20;11.70;;;7.73;;
7173;SDS011;3628;48.654;8.932;2022-12-10T16:45:50;13.57;;;8.53;;
7173;SDS011;3628;48.654;8.932;2022-12-10T16:48:16;11.23;;;7.43;;
7173;SDS011;3628;48.654;8.932;2022-12-10T16:50:43;11.80;;;7.53;;
7173;SDS011;3628;48.654;8.932;2022-12-10T16:55:48;14.10;;;8.53;;
7173;SDS011;3628;48.654;8.932;2022-12-10T16:58:14;11.73;;;7.90;;
7173;SDS011;3628;48.654;8.932;2022-12-10T17:00:41;12.87;;;7.93;;
7173;SDS011;3628;48.654;8.932;2022-12-10T17:03:10;10.50;;;7.27;;
7173;SDS011;3628;48.654;8.932;2022-12-10T17:05:41;13.80;;;8.37;;
7173;SDS011;3628;48.654;8.932;2022-12-10T17:08:07;12.00;;;8.43;;
7173;SDS011;3628;48.654;8.932;2022-12-10T17:10:34;11.77;;;8.27;;
7173;SDS011;3628;48.654;8.932;2022-12-10T17:13:18;12.87;;;8.53;;
7173;SDS011;3628;48.654;8.932;2022-12-10T17:15:47;9.70;;;7.33;;
7173;SDS011;3628;48.654;8.932;2022-12-10T17:18:14;10.57;;;7.83;;
7173;SDS011;3628;48.654;8.932;2022-12-10T17:20:42;12.80;;;7.27;;